sensor_id;sensor_type;location;lat;lon;timestamp;P1;durP1;ratioP1;P2;durP2;ratioP2
29382;SDS011;16365;51.598;7.668;2022-11-25T00:01:25;13.02;;;3.40;;
29382;SDS011;16365;51.598;7.668;2022-11-25T00:03:53;11.52;;;2.58;;
29382;SDS011;16365;51.598;7.668;2022-11-25T00:06:28;10.02;;;2.85;;
29382;SDS011;16365;51.598;7.668;2022-11-25T00:09:01;20.92;;;2.90;;
29382;SDS011;16365;51.598;7.668;2022-11-25T00:11:36;11.73;;;2.33;;
29382;SDS011;16365;51.598;7.668;2022-11-25T00:14:05;12.52;;;2.60;;
29382;SDS011;16365;51.598;7.668;2022-11-25T00:16:32;18.13;;;2.97;;
29382;SDS011;16365;51.598;7.668;2022-11-25T00:18:59;11.18;;;2.60;;
29382;SDS011;16365;51.598;7.668;2022-11-25T00:21:29;13.70;;;2.95;;
29382;SDS011;16365;51.598;7.668;2022-11-25T00:23:58;10.75;;;2.53;;
29382;SDS011;16365;51.598;7.668;2022-11-25T00:26:27;11.57;;;2.53;;
29382;SDS011;16365;51.598;7.668;2022-11-25T00:28:56;13.63;;;2.55;;
29382;SDS011;16365;51.598;7.668;2022-11-25T00:31:24;15.77;;;2.92;;
29382;SDS011;16365;51.598;7.668;2022-11-25T00:33:59;7.55;;;1.92;;
29382;SDS011;16365;51.598;7.668;2022-11-25T00:36:32;9.40;;;2.10;;
29382;SDS011;16365;51.598;7.668;2022-11-25T00:39:02;12.32;;;2.42;;
29382;SDS011;16365;51.598;7.668;2022-11-25T00:41:30;10.20;;;2.83;;
29382;SDS011;16365;51.598;7.668;2022-11-25T00:44:18;12.55;;;2.95;;
29382;SDS011;16365;51.598;7.668;2022-11-25T00:47:11;16.42;;;2.17;;
29382;SDS011;16365;51.598;7.668;2022-11-25T00:49:40;11.65;;;2.20;;
29382;SDS011;16365;51.598;7.668;2022-11-25T00:52:08;11.68;;;2.60;;
29382;SDS011;16365;51.598;7.668;2022-11-25T00:54:38;15.35;;;2.53;;
29382;SDS011;16365;51.598;7.668;2022-11-25T00:57:04;10.20;;;2.25;;
29382;SDS011;16365;51.598;7.668;2022-11-25T00:59:30;12.50;;;2.58;;
29382;SDS011;16365;51.598;7.668;2022-11-25T01:01:57;13.75;;;2.47;;
29382;SDS011;16365;51.598;7.668;2022-11-25T01:04:23;12.20;;;2.58;;
29382;SDS011;16365;51.598;7.668;2022-11-25T01:06:50;11.85;;;2.40;;
29382;SDS011;16365;51.598;7.668;2022-11-25T01:09:16;24.02;;;2.83;;
29382;SDS011;16365;51.598;7.668;2022-11-25T01:11:43;12.55;;;2.90;;
29382;SDS011;16365;51.598;7.668;2022-11-25T01:14:11;11.23;;;2.80;;
29382;SDS011;16365;51.598;7.668;2022-11-25T01:16:37;11.15;;;2.75;;
29382;SDS011;16365;51.598;7.668;2022-11-25T01:19:03;13.02;;;2.63;;
29382;SDS011;16365;51.598;7.668;2022-11-25T01:21:31;10.68;;;2.50;;
29382;SDS011;16365;51.598;7.668;2022-11-25T01:23:59;10.57;;;2.38;;
29382;SDS011;16365;51.598;7.668;2022-11-25T01:26:27;14.00;;;2.40;;
29382;SDS011;16365;51.598;7.668;2022-11-25T01:28:56;13.63;;;2.22;;
29382;SDS011;16365;51.598;7.668;2022-11-25T01:31:25;18.80;;;2.42;;
29382;SDS011;16365;51.598;7.668;2022-11-25T01:33:56;8.88;;;2.50;;
29382;SDS011;16365;51.598;7.668;2022-11-25T01:36:24;16.45;;;2.45;;
29382;SDS011;16365;51.598;7.668;2022-11-25T01:38:52;10.45;;;2.28;;
29382;SDS011;16365;51.598;7.668;2022-11-25T01:41:21;10.20;;;2.10;;
29382;SDS011;16365;51.598;7.668;2022-11-25T01:44:04;10.80;;;2.20;;
29382;SDS011;16365;51.598;7.668;2022-11-25T01:49:17;12.18;;;2.97;;
29382;SDS011;16365;51.598;7.668;2022-11-25T01:52:03;12.98;;;2.22;;
29382;SDS011;16365;51.598;7.668;2022-11-25T01:54:39;10.68;;;2.20;;
29382;SDS011;16365;51.598;7.668;2022-11-25T01:57:21;12.32;;;3.10;;
29382;SDS011;16365;51.598;7.668;2022-11-25T01:59:51;10.55;;;2.10;;
29382;SDS011;16365;51.598;7.668;2022-11-25T02:02:20;18.10;;;3.08;;
29382;SDS011;16365;51.598;7.668;2022-11-25T02:04:47;11.13;;;2.13;;
29382;SDS011;16365;51.598;7.668;2022-11-25T02:07:19;13.40;;;2.28;;
29382;SDS011;16365;51.598;7.668;2022-11-25T02:09:51;12.48;;;2.85;;
29382;SDS011;16365;51.598;7.668;2022-11-25T02:12:19;10.35;;;2.30;;
29382;SDS011;16365;51.598;7.668;2022-11-25T02:14:45;12.98;;;2.20;;
29382;SDS011;16365;51.598;7.668;2022-11-25T02:17:14;17.75;;;2.40;;
29382;SDS011;16365;51.598;7.668;2022-11-25T02:22:32;16.80;;;3.15;;
29382;SDS011;16365;51.598;7.668;2022-11-25T02:25:05;14.48;;;2.33;;
29382;SDS011;16365;51.598;7.668;2022-11-25T02:27:40;14.05;;;2.70;;
29382;SDS011;16365;51.598;7.668;2022-11-25T02:30:09;14.18;;;3.13;;
29382;SDS011;16365;51.598;7.668;2022-11-25T02:32:41;13.18;;;2.17;;
29382;SDS011;16365;51.598;7.668;2022-11-25T02:37:52;13.90;;;2.63;;
29382;SDS011;16365;51.598;7.668;2022-11-25T02:40:24;14.50;;;3.03;;
29382;SDS011;16365;51.598;7.668;2022-11-25T02:42:52;12.02;;;2.70;;
29382;SDS011;16365;51.598;7.668;2022-11-25T02:45:25;13.80;;;2.58;;
29382;SDS011;16365;51.598;7.668;2022-11-25T02:47:58;12.27;;;2.47;;
29382;SDS011;16365;51.598;7.668;2022-11-25T02:50:25;11.27;;;2.30;;
29382;SDS011;16365;51.598;7.668;2022-11-25T02:52:51;14.30;;;2.97;;
29382;SDS011;16365;51.598;7.668;2022-11-25T02:55:18;15.93;;;3.35;;
29382;SDS011;16365;51.598;7.668;2022-11-25T02:57:44;11.18;;;2.60;;
29382;SDS011;16365;51.598;7.668;2022-11-25T03:00:11;14.00;;;2.88;;
29382;SDS011;16365;51.598;7.668;2022-11-25T03:02:38;10.25;;;2.97;;
29382;SDS011;16365;51.598;7.668;2022-11-25T03:05:04;12.63;;;3.42;;
29382;SDS011;16365;51.598;7.668;2022-11-25T03:07:32;11.02;;;2.40;;
29382;SDS011;16365;51.598;7.668;2022-11-25T03:09:58;11.10;;;2.60;;
29382;SDS011;16365;51.598;7.668;2022-11-25T03:12:25;13.07;;;2.40;;
29382;SDS011;16365;51.598;7.668;2022-11-25T03:14:53;12.68;;;3.25;;
29382;SDS011;16365;51.598;7.668;2022-11-25T03:17:20;12.93;;;2.30;;
29382;SDS011;16365;51.598;7.668;2022-11-25T03:19:46;12.93;;;2.35;;
29382;SDS011;16365;51.598;7.668;2022-11-25T03:22:13;14.85;;;2.42;;
29382;SDS011;16365;51.598;7.668;2022-11-25T03:24:39;10.82;;;3.00;;
29382;SDS011;16365;51.598;7.668;2022-11-25T03:27:05;10.95;;;2.88;;
29382;SDS011;16365;51.598;7.668;2022-11-25T03:29:33;9.63;;;2.47;;
29382;SDS011;16365;51.598;7.668;2022-11-25T03:32:01;8.40;;;2.45;;
29382;SDS011;16365;51.598;7.668;2022-11-25T03:34:34;10.63;;;2.60;;
29382;SDS011;16365;51.598;7.668;2022-11-25T03:37:01;17.88;;;3.42;;
29382;SDS011;16365;51.598;7.668;2022-11-25T03:39:27;9.80;;;2.80;;
29382;SDS011;16365;51.598;7.668;2022-11-25T03:41:54;17.17;;;3.38;;
29382;SDS011;16365;51.598;7.668;2022-11-25T03:44:20;13.50;;;2.42;;
29382;SDS011;16365;51.598;7.668;2022-11-25T03:46:47;11.35;;;2.65;;
29382;SDS011;16365;51.598;7.668;2022-11-25T03:49:13;14.35;;;2.97;;
29382;SDS011;16365;51.598;7.668;2022-11-25T03:51:40;11.18;;;2.88;;
29382;SDS011;16365;51.598;7.668;2022-11-25T03:54:06;13.35;;;3.38;;
29382;SDS011;16365;51.598;7.668;2022-11-25T03:56:32;14.43;;;2.53;;
29382;SDS011;16365;51.598;7.668;2022-11-25T03:58:59;12.60;;;3.03;;
29382;SDS011;16365;51.598;7.668;2022-11-25T04:01:25;15.68;;;3.35;;
29382;SDS011;16365;51.598;7.668;2022-11-25T04:03:52;9.10;;;2.70;;
29382;SDS011;16365;51.598;7.668;2022-11-25T04:06:18;11.52;;;2.42;;
29382;SDS011;16365;51.598;7.668;2022-11-25T04:08:46;8.55;;;2.47;;
29382;SDS011;16365;51.598;7.668;2022-11-25T04:13:42;16.95;;;2.80;;
29382;SDS011;16365;51.598;7.668;2022-11-25T04:19:04;8.10;;;2.53;;
29382;SDS011;16365;51.598;7.668;2022-11-25T04:21:31;11.80;;;2.92;;
29382;SDS011;16365;51.598;7.668;2022-11-25T04:23:57;8.02;;;3.00;;
29382;SDS011;16365;51.598;7.668;2022-11-25T04:26:24;14.27;;;2.97;;
29382;SDS011;16365;51.598;7.668;2022-11-25T04:28:51;13.07;;;2.60;;
29382;SDS011;16365;51.598;7.668;2022-11-25T04:31:18;10.00;;;2.45;;
29382;SDS011;16365;51.598;7.668;2022-11-25T04:33:45;12.20;;;2.35;;
29382;SDS011;16365;51.598;7.668;2022-11-25T04:36:17;14.48;;;2.75;;
29382;SDS011;16365;51.598;7.668;2022-11-25T04:38:44;10.95;;;2.55;;
29382;SDS011;16365;51.598;7.668;2022-11-25T04:41:10;14.07;;;2.85;;
29382;SDS011;16365;51.598;7.668;2022-11-25T04:43:37;14.60;;;2.90;;
29382;SDS011;16365;51.598;7.668;2022-11-25T04:46:03;13.88;;;2.50;;
29382;SDS011;16365;51.598;7.668;2022-11-25T04:48:39;10.35;;;2.25;;
29382;SDS011;16365;51.598;7.668;2022-11-25T04:51:06;9.93;;;2.67;;
29382;SDS011;16365;51.598;7.668;2022-11-25T04:53:34;15.68;;;2.65;;
29382;SDS011;16365;51.598;7.668;2022-11-25T04:56:00;14.02;;;2.47;;
29382;SDS011;16365;51.598;7.668;2022-11-25T04:58:27;13.32;;;2.88;;
29382;SDS011;16365;51.598;7.668;2022-11-25T05:01:11;9.95;;;2.53;;
29382;SDS011;16365;51.598;7.668;2022-11-25T05:03:38;15.45;;;3.33;;
29382;SDS011;16365;51.598;7.668;2022-11-25T05:06:11;16.55;;;3.33;;
29382;SDS011;16365;51.598;7.668;2022-11-25T05:08:38;11.65;;;2.90;;
29382;SDS011;16365;51.598;7.668;2022-11-25T05:11:04;19.55;;;3.05;;
29382;SDS011;16365;51.598;7.668;2022-11-25T05:13:31;15.00;;;2.88;;
29382;SDS011;16365;51.598;7.668;2022-11-25T05:15:58;10.60;;;2.35;;
29382;SDS011;16365;51.598;7.668;2022-11-25T05:18:25;14.00;;;2.70;;
29382;SDS011;16365;51.598;7.668;2022-11-25T05:20:52;14.40;;;3.97;;
29382;SDS011;16365;51.598;7.668;2022-11-25T05:23:18;11.63;;;2.85;;
29382;SDS011;16365;51.598;7.668;2022-11-25T05:25:45;16.27;;;3.03;;
29382;SDS011;16365;51.598;7.668;2022-11-25T05:28:11;8.07;;;2.85;;
29382;SDS011;16365;51.598;7.668;2022-11-25T05:30:37;11.98;;;2.92;;
29382;SDS011;16365;51.598;7.668;2022-11-25T05:33:05;17.40;;;3.60;;
29382;SDS011;16365;51.598;7.668;2022-11-25T05:35:31;12.18;;;3.22;;
29382;SDS011;16365;51.598;7.668;2022-11-25T05:37:58;10.02;;;2.60;;
29382;SDS011;16365;51.598;7.668;2022-11-25T05:40:26;10.60;;;2.50;;
29382;SDS011;16365;51.598;7.668;2022-11-25T05:42:52;13.32;;;3.17;;
29382;SDS011;16365;51.598;7.668;2022-11-25T05:45:19;16.80;;;3.22;;
29382;SDS011;16365;51.598;7.668;2022-11-25T05:47:45;15.52;;;3.15;;
29382;SDS011;16365;51.598;7.668;2022-11-25T05:50:11;12.52;;;2.40;;
29382;SDS011;16365;51.598;7.668;2022-11-25T05:52:38;10.00;;;2.30;;
29382;SDS011;16365;51.598;7.668;2022-11-25T05:55:04;13.20;;;2.75;;
29382;SDS011;16365;51.598;7.668;2022-11-25T05:57:31;14.73;;;2.88;;
29382;SDS011;16365;51.598;7.668;2022-11-25T05:59:57;10.70;;;2.58;;
29382;SDS011;16365;51.598;7.668;2022-11-25T06:02:24;12.13;;;2.88;;
29382;SDS011;16365;51.598;7.668;2022-11-25T06:04:52;11.27;;;2.38;;
29382;SDS011;16365;51.598;7.668;2022-11-25T06:07:18;15.82;;;3.47;;
29382;SDS011;16365;51.598;7.668;2022-11-25T06:09:45;10.18;;;2.80;;
29382;SDS011;16365;51.598;7.668;2022-11-25T06:12:11;12.82;;;3.50;;
29382;SDS011;16365;51.598;7.668;2022-11-25T06:14:38;11.52;;;3.30;;
29382;SDS011;16365;51.598;7.668;2022-11-25T06:17:04;12.02;;;3.13;;
29382;SDS011;16365;51.598;7.668;2022-11-25T06:19:30;11.95;;;3.28;;
29382;SDS011;16365;51.598;7.668;2022-11-25T06:21:58;11.48;;;3.17;;
29382;SDS011;16365;51.598;7.668;2022-11-25T06:24:24;14.98;;;2.55;;
29382;SDS011;16365;51.598;7.668;2022-11-25T06:26:51;16.25;;;4.07;;
29382;SDS011;16365;51.598;7.668;2022-11-25T06:29:17;14.13;;;3.20;;
29382;SDS011;16365;51.598;7.668;2022-11-25T06:31:43;17.80;;;3.15;;
29382;SDS011;16365;51.598;7.668;2022-11-25T06:34:10;14.73;;;3.25;;
29382;SDS011;16365;51.598;7.668;2022-11-25T06:36:38;14.43;;;2.75;;
29382;SDS011;16365;51.598;7.668;2022-11-25T06:39:05;12.75;;;2.88;;
29382;SDS011;16365;51.598;7.668;2022-11-25T06:41:31;11.85;;;3.00;;
29382;SDS011;16365;51.598;7.668;2022-11-25T06:43:58;14.48;;;2.72;;
29382;SDS011;16365;51.598;7.668;2022-11-25T06:46:25;11.15;;;3.08;;
29382;SDS011;16365;51.598;7.668;2022-11-25T06:48:52;8.98;;;2.50;;
29382;SDS011;16365;51.598;7.668;2022-11-25T06:51:18;15.85;;;3.17;;
29382;SDS011;16365;51.598;7.668;2022-11-25T06:53:45;16.80;;;3.10;;
29382;SDS011;16365;51.598;7.668;2022-11-25T06:58:43;12.88;;;3.15;;
29382;SDS011;16365;51.598;7.668;2022-11-25T07:01:12;18.55;;;3.65;;
29382;SDS011;16365;51.598;7.668;2022-11-25T07:03:41;14.80;;;3.00;;
29382;SDS011;16365;51.598;7.668;2022-11-25T07:06:11;13.18;;;3.58;;
29382;SDS011;16365;51.598;7.668;2022-11-25T07:08:38;13.25;;;3.25;;
29382;SDS011;16365;51.598;7.668;2022-11-25T07:11:13;16.40;;;3.10;;
29382;SDS011;16365;51.598;7.668;2022-11-25T07:13:43;16.48;;;4.20;;
29382;SDS011;16365;51.598;7.668;2022-11-25T07:16:10;12.13;;;3.00;;
29382;SDS011;16365;51.598;7.668;2022-11-25T07:18:37;16.60;;;3.33;;
29382;SDS011;16365;51.598;7.668;2022-11-25T07:21:08;17.27;;;3.75;;
29382;SDS011;16365;51.598;7.668;2022-11-25T07:23:36;19.05;;;3.45;;
29382;SDS011;16365;51.598;7.668;2022-11-25T07:26:04;12.00;;;3.38;;
29382;SDS011;16365;51.598;7.668;2022-11-25T07:28:38;15.80;;;2.92;;
29382;SDS011;16365;51.598;7.668;2022-11-25T07:33:54;14.67;;;3.70;;
29382;SDS011;16365;51.598;7.668;2022-11-25T07:36:23;13.20;;;3.58;;
29382;SDS011;16365;51.598;7.668;2022-11-25T07:38:51;11.75;;;3.10;;
29382;SDS011;16365;51.598;7.668;2022-11-25T07:41:19;15.20;;;3.38;;
29382;SDS011;16365;51.598;7.668;2022-11-25T07:43:48;12.77;;;3.58;;
29382;SDS011;16365;51.598;7.668;2022-11-25T07:48:52;12.18;;;3.28;;
29382;SDS011;16365;51.598;7.668;2022-11-25T07:51:25;13.73;;;3.30;;
29382;SDS011;16365;51.598;7.668;2022-11-25T07:53:55;12.60;;;3.17;;
29382;SDS011;16365;51.598;7.668;2022-11-25T07:56:23;9.35;;;3.22;;
29382;SDS011;16365;51.598;7.668;2022-11-25T07:58:50;15.10;;;3.22;;
29382;SDS011;16365;51.598;7.668;2022-11-25T08:01:17;11.52;;;2.75;;
29382;SDS011;16365;51.598;7.668;2022-11-25T08:03:45;10.27;;;3.22;;
29382;SDS011;16365;51.598;7.668;2022-11-25T08:06:16;10.73;;;3.00;;
29382;SDS011;16365;51.598;7.668;2022-11-25T08:08:45;9.52;;;3.90;;
29382;SDS011;16365;51.598;7.668;2022-11-25T08:11:13;10.38;;;3.42;;
29382;SDS011;16365;51.598;7.668;2022-11-25T08:13:44;13.00;;;3.40;;
29382;SDS011;16365;51.598;7.668;2022-11-25T08:16:11;11.00;;;3.33;;
29382;SDS011;16365;51.598;7.668;2022-11-25T08:18:40;13.10;;;3.40;;
29382;SDS011;16365;51.598;7.668;2022-11-25T08:21:08;9.98;;;3.10;;
29382;SDS011;16365;51.598;7.668;2022-11-25T08:23:36;8.55;;;2.97;;
29382;SDS011;16365;51.598;7.668;2022-11-25T08:26:08;10.27;;;3.40;;
29382;SDS011;16365;51.598;7.668;2022-11-25T08:28:37;10.23;;;3.13;;
29382;SDS011;16365;51.598;7.668;2022-11-25T08:31:07;11.77;;;3.70;;
29382;SDS011;16365;51.598;7.668;2022-11-25T08:33:35;9.98;;;2.75;;
29382;SDS011;16365;51.598;7.668;2022-11-25T08:36:03;9.82;;;3.17;;
29382;SDS011;16365;51.598;7.668;2022-11-25T08:38:30;11.70;;;3.50;;
29382;SDS011;16365;51.598;7.668;2022-11-25T08:40:57;11.77;;;3.10;;
29382;SDS011;16365;51.598;7.668;2022-11-25T08:43:24;12.68;;;3.30;;
29382;SDS011;16365;51.598;7.668;2022-11-25T08:45:54;9.25;;;2.80;;
29382;SDS011;16365;51.598;7.668;2022-11-25T08:48:21;11.77;;;4.10;;
29382;SDS011;16365;51.598;7.668;2022-11-25T08:50:49;11.07;;;3.70;;
29382;SDS011;16365;51.598;7.668;2022-11-25T08:53:19;10.00;;;4.05;;
29382;SDS011;16365;51.598;7.668;2022-11-25T08:55:46;11.52;;;4.00;;
29382;SDS011;16365;51.598;7.668;2022-11-25T08:58:14;14.27;;;4.60;;
29382;SDS011;16365;51.598;7.668;2022-11-25T09:00:41;10.05;;;4.03;;
29382;SDS011;16365;51.598;7.668;2022-11-25T09:05:40;14.35;;;3.53;;
29382;SDS011;16365;51.598;7.668;2022-11-25T09:08:08;11.00;;;3.58;;
29382;SDS011;16365;51.598;7.668;2022-11-25T09:10:36;15.73;;;3.75;;
29382;SDS011;16365;51.598;7.668;2022-11-25T09:13:05;10.45;;;3.60;;
29382;SDS011;16365;51.598;7.668;2022-11-25T09:15:35;12.43;;;3.50;;
29382;SDS011;16365;51.598;7.668;2022-11-25T09:18:04;10.85;;;3.45;;
29382;SDS011;16365;51.598;7.668;2022-11-25T09:20:33;13.05;;;3.70;;
29382;SDS011;16365;51.598;7.668;2022-11-25T09:23:02;10.07;;;3.20;;
29382;SDS011;16365;51.598;7.668;2022-11-25T09:25:28;9.25;;;3.65;;
29382;SDS011;16365;51.598;7.668;2022-11-25T09:27:56;13.70;;;4.00;;
29382;SDS011;16365;51.598;7.668;2022-11-25T09:30:23;15.70;;;4.05;;
29382;SDS011;16365;51.598;7.668;2022-11-25T09:32:51;15.68;;;3.63;;
29382;SDS011;16365;51.598;7.668;2022-11-25T09:35:19;12.15;;;3.35;;
29382;SDS011;16365;51.598;7.668;2022-11-25T09:37:46;13.95;;;3.92;;
29382;SDS011;16365;51.598;7.668;2022-11-25T09:40:18;16.13;;;4.25;;
29382;SDS011;16365;51.598;7.668;2022-11-25T09:42:48;12.32;;;3.17;;
29382;SDS011;16365;51.598;7.668;2022-11-25T09:45:45;14.25;;;3.42;;
29382;SDS011;16365;51.598;7.668;2022-11-25T09:49:23;10.35;;;3.28;;
29382;SDS011;16365;51.598;7.668;2022-11-25T09:54:46;16.75;;;3.00;;
29382;SDS011;16365;51.598;7.668;2022-11-25T09:57:26;13.15;;;2.97;;
29382;SDS011;16365;51.598;7.668;2022-11-25T10:00:19;13.20;;;3.28;;
29382;SDS011;16365;51.598;7.668;2022-11-25T10:05:42;15.27;;;3.92;;
29382;SDS011;16365;51.598;7.668;2022-11-25T10:08:22;9.45;;;2.90;;
29382;SDS011;16365;51.598;7.668;2022-11-25T10:10:54;11.85;;;3.25;;
29382;SDS011;16365;51.598;7.668;2022-11-25T10:19:22;10.00;;;2.78;;
29382;SDS011;16365;51.598;7.668;2022-11-25T10:22:08;10.98;;;3.13;;
29382;SDS011;16365;51.598;7.668;2022-11-25T10:24:41;18.98;;;3.83;;
29382;SDS011;16365;51.598;7.668;2022-11-25T10:27:12;14.55;;;3.00;;
29382;SDS011;16365;51.598;7.668;2022-11-25T10:29:43;9.93;;;2.88;;
29382;SDS011;16365;51.598;7.668;2022-11-25T10:32:21;16.83;;;2.90;;
29382;SDS011;16365;51.598;7.668;2022-11-25T10:34:52;11.73;;;3.78;;
29382;SDS011;16365;51.598;7.668;2022-11-25T10:37:25;13.73;;;3.38;;
29382;SDS011;16365;51.598;7.668;2022-11-25T10:39:56;9.85;;;2.47;;
29382;SDS011;16365;51.598;7.668;2022-11-25T10:42:24;9.45;;;2.90;;
29382;SDS011;16365;51.598;7.668;2022-11-25T10:44:53;13.13;;;3.30;;
29382;SDS011;16365;51.598;7.668;2022-11-25T10:47:36;9.57;;;3.03;;
29382;SDS011;16365;51.598;7.668;2022-11-25T10:50:19;9.45;;;2.45;;
29382;SDS011;16365;51.598;7.668;2022-11-25T10:55:34;8.07;;;2.90;;
29382;SDS011;16365;51.598;7.668;2022-11-25T10:58:18;12.32;;;2.75;;
29382;SDS011;16365;51.598;7.668;2022-11-25T11:01:37;12.75;;;3.05;;
29382;SDS011;16365;51.598;7.668;2022-11-25T11:03:42;9.18;;;2.17;;
29382;SDS011;16365;51.598;7.668;2022-11-25T11:06:27;10.13;;;2.53;;
29382;SDS011;16365;51.598;7.668;2022-11-25T11:08:54;10.32;;;3.08;;
29382;SDS011;16365;51.598;7.668;2022-11-25T11:11:21;11.35;;;2.67;;
29382;SDS011;16365;51.598;7.668;2022-11-25T11:13:48;7.10;;;2.50;;
29382;SDS011;16365;51.598;7.668;2022-11-25T11:16:46;8.30;;;2.22;;
29382;SDS011;16365;51.598;7.668;2022-11-25T11:19:19;5.53;;;2.08;;
29382;SDS011;16365;51.598;7.668;2022-11-25T11:21:51;11.95;;;2.97;;
29382;SDS011;16365;51.598;7.668;2022-11-25T11:24:22;8.48;;;2.33;;
29382;SDS011;16365;51.598;7.668;2022-11-25T11:27:02;6.85;;;2.20;;
29382;SDS011;16365;51.598;7.668;2022-11-25T11:29:40;9.52;;;2.10;;
29382;SDS011;16365;51.598;7.668;2022-11-25T11:32:06;13.20;;;2.85;;
29382;SDS011;16365;51.598;7.668;2022-11-25T11:48:06;10.95;;;2.90;;
29382;SDS011;16365;51.598;7.668;2022-11-25T11:50:47;12.48;;;2.80;;
29382;SDS011;16365;51.598;7.668;2022-11-25T12:02:11;11.63;;;3.33;;
29382;SDS011;16365;51.598;7.668;2022-11-25T12:04:48;13.60;;;3.72;;
29382;SDS011;16365;51.598;7.668;2022-11-25T12:07:35;11.60;;;3.13;;
29382;SDS011;16365;51.598;7.668;2022-11-25T12:10:07;10.27;;;2.88;;
29382;SDS011;16365;51.598;7.668;2022-11-25T12:12:55;11.73;;;3.40;;
29382;SDS011;16365;51.598;7.668;2022-11-25T12:27:04;14.15;;;3.30;;
29382;SDS011;16365;51.598;7.668;2022-11-25T12:29:51;12.13;;;2.65;;
29382;SDS011;16365;51.598;7.668;2022-11-25T12:40:43;11.43;;;3.10;;
29382;SDS011;16365;51.598;7.668;2022-11-25T12:46:03;9.55;;;3.13;;
29382;SDS011;16365;51.598;7.668;2022-11-25T12:48:38;15.13;;;3.72;;
29382;SDS011;16365;51.598;7.668;2022-11-25T12:54:36;8.27;;;2.85;;
29382;SDS011;16365;51.598;7.668;2022-11-25T12:57:28;10.23;;;2.85;;
29382;SDS011;16365;51.598;7.668;2022-11-25T13:00:20;12.50;;;3.60;;
29382;SDS011;16365;51.598;7.668;2022-11-25T13:11:49;16.13;;;3.55;;
29382;SDS011;16365;51.598;7.668;2022-11-25T13:17:23;10.63;;;3.20;;
29382;SDS011;16365;51.598;7.668;2022-11-25T13:25:34;20.42;;;3.90;;
29382;SDS011;16365;51.598;7.668;2022-11-25T13:31:15;14.63;;;4.30;;
29382;SDS011;16365;51.598;7.668;2022-11-25T13:36:23;9.45;;;3.00;;
29382;SDS011;16365;51.598;7.668;2022-11-25T13:39:19;14.35;;;3.67;;
29382;SDS011;16365;51.598;7.668;2022-11-25T13:42:21;12.68;;;3.78;;
29382;SDS011;16365;51.598;7.668;2022-11-25T13:44:53;14.85;;;3.63;;
29382;SDS011;16365;51.598;7.668;2022-11-25T13:50:00;16.23;;;4.57;;
29382;SDS011;16365;51.598;7.668;2022-11-25T13:52:41;16.13;;;4.32;;
29382;SDS011;16365;51.598;7.668;2022-11-25T13:57:45;9.38;;;3.42;;
29382;SDS011;16365;51.598;7.668;2022-11-25T14:02:40;12.43;;;3.75;;
29382;SDS011;16365;51.598;7.668;2022-11-25T14:08:10;13.73;;;4.07;;
29382;SDS011;16365;51.598;7.668;2022-11-25T14:25:07;15.45;;;4.18;;
29382;SDS011;16365;51.598;7.668;2022-11-25T14:27:45;22.08;;;4.57;;
29382;SDS011;16365;51.598;7.668;2022-11-25T14:30:14;11.20;;;3.70;;
29382;SDS011;16365;51.598;7.668;2022-11-25T14:32:50;11.25;;;3.30;;
29382;SDS011;16365;51.598;7.668;2022-11-25T14:35:25;15.15;;;4.25;;
29382;SDS011;16365;51.598;7.668;2022-11-25T14:38:06;21.25;;;4.15;;
29382;SDS011;16365;51.598;7.668;2022-11-25T14:43:36;15.10;;;3.55;;
29382;SDS011;16365;51.598;7.668;2022-11-25T14:48:41;17.88;;;4.03;;
29382;SDS011;16365;51.598;7.668;2022-11-25T14:51:09;18.85;;;4.72;;
29382;SDS011;16365;51.598;7.668;2022-11-25T14:53:43;19.23;;;3.97;;
29382;SDS011;16365;51.598;7.668;2022-11-25T14:56:14;16.30;;;4.70;;
29382;SDS011;16365;51.598;7.668;2022-11-25T14:58:46;18.65;;;3.63;;
29382;SDS011;16365;51.598;7.668;2022-11-25T15:01:21;10.88;;;3.67;;
29382;SDS011;16365;51.598;7.668;2022-11-25T15:03:48;11.90;;;4.32;;
29382;SDS011;16365;51.598;7.668;2022-11-25T15:06:15;13.23;;;4.18;;
29382;SDS011;16365;51.598;7.668;2022-11-25T15:08:53;15.43;;;4.13;;
29382;SDS011;16365;51.598;7.668;2022-11-25T15:11:23;10.80;;;4.20;;
29382;SDS011;16365;51.598;7.668;2022-11-25T15:13:58;15.93;;;6.07;;
29382;SDS011;16365;51.598;7.668;2022-11-25T15:16:35;20.73;;;5.47;;
29382;SDS011;16365;51.598;7.668;2022-11-25T15:19:06;18.60;;;4.03;;
29382;SDS011;16365;51.598;7.668;2022-11-25T15:21:42;20.65;;;4.90;;
29382;SDS011;16365;51.598;7.668;2022-11-25T15:24:30;14.93;;;4.63;;
29382;SDS011;16365;51.598;7.668;2022-11-25T15:27:16;21.02;;;5.75;;
29382;SDS011;16365;51.598;7.668;2022-11-25T15:29:43;16.38;;;4.93;;
29382;SDS011;16365;51.598;7.668;2022-11-25T15:32:13;20.42;;;7.13;;
29382;SDS011;16365;51.598;7.668;2022-11-25T15:34:43;24.13;;;6.03;;
29382;SDS011;16365;51.598;7.668;2022-11-25T15:37:11;15.20;;;5.05;;
29382;SDS011;16365;51.598;7.668;2022-11-25T15:39:38;13.18;;;5.22;;
29382;SDS011;16365;51.598;7.668;2022-11-25T15:42:15;16.02;;;6.03;;
29382;SDS011;16365;51.598;7.668;2022-11-25T15:47:27;20.13;;;6.63;;
29382;SDS011;16365;51.598;7.668;2022-11-25T15:52:26;16.73;;;5.43;;
29382;SDS011;16365;51.598;7.668;2022-11-25T15:54:58;19.83;;;5.53;;
29382;SDS011;16365;51.598;7.668;2022-11-25T15:57:29;13.27;;;5.88;;
29382;SDS011;16365;51.598;7.668;2022-11-25T16:10:23;21.65;;;6.55;;
29382;SDS011;16365;51.598;7.668;2022-11-25T16:15:50;19.17;;;5.72;;
29382;SDS011;16365;51.598;7.668;2022-11-25T16:18:21;22.40;;;7.63;;
29382;SDS011;16365;51.598;7.668;2022-11-25T16:21:07;21.48;;;7.85;;
29382;SDS011;16365;51.598;7.668;2022-11-25T16:23:38;21.10;;;7.30;;
29382;SDS011;16365;51.598;7.668;2022-11-25T16:28:38;25.98;;;7.93;;
29382;SDS011;16365;51.598;7.668;2022-11-25T16:31:14;24.33;;;9.70;;
29382;SDS011;16365;51.598;7.668;2022-11-25T16:33:41;22.92;;;10.52;;
29382;SDS011;16365;51.598;7.668;2022-11-25T16:36:08;26.08;;;10.50;;
29382;SDS011;16365;51.598;7.668;2022-11-25T16:38:35;25.15;;;12.27;;
29382;SDS011;16365;51.598;7.668;2022-11-25T16:41:07;31.23;;;14.45;;
29382;SDS011;16365;51.598;7.668;2022-11-25T16:43:37;28.52;;;13.55;;
29382;SDS011;16365;51.598;7.668;2022-11-25T16:46:05;29.20;;;12.85;;
29382;SDS011;16365;51.598;7.668;2022-11-25T16:48:33;31.33;;;13.63;;
29382;SDS011;16365;51.598;7.668;2022-11-25T16:51:04;22.13;;;9.73;;
29382;SDS011;16365;51.598;7.668;2022-11-25T16:53:34;24.92;;;9.15;;
29382;SDS011;16365;51.598;7.668;2022-11-25T16:56:01;21.88;;;9.55;;
29382;SDS011;16365;51.598;7.668;2022-11-25T16:58:28;25.55;;;7.50;;
29382;SDS011;16365;51.598;7.668;2022-11-25T17:00:55;19.50;;;6.70;;
29382;SDS011;16365;51.598;7.668;2022-11-25T17:03:22;17.50;;;6.85;;
29382;SDS011;16365;51.598;7.668;2022-11-25T17:05:51;18.20;;;6.32;;
29382;SDS011;16365;51.598;7.668;2022-11-25T17:08:18;24.35;;;9.75;;
29382;SDS011;16365;51.598;7.668;2022-11-25T17:10:44;19.23;;;8.02;;
29382;SDS011;16365;51.598;7.668;2022-11-25T17:13:18;25.17;;;8.60;;
29382;SDS011;16365;51.598;7.668;2022-11-25T17:15:48;22.67;;;8.65;;
29382;SDS011;16365;51.598;7.668;2022-11-25T17:18:15;29.52;;;11.48;;
29382;SDS011;16365;51.598;7.668;2022-11-25T17:20:45;20.98;;;8.93;;
29382;SDS011;16365;51.598;7.668;2022-11-25T17:23:12;30.48;;;12.63;;
29382;SDS011;16365;51.598;7.668;2022-11-25T17:25:45;27.48;;;13.52;;
29382;SDS011;16365;51.598;7.668;2022-11-25T17:28:14;25.50;;;9.80;;
29382;SDS011;16365;51.598;7.668;2022-11-25T17:30:45;17.67;;;7.93;;
29382;SDS011;16365;51.598;7.668;2022-11-25T17:33:17;28.25;;;10.32;;
29382;SDS011;16365;51.598;7.668;2022-11-25T17:35:45;30.02;;;12.15;;
29382;SDS011;16365;51.598;7.668;2022-11-25T17:38:12;20.98;;;10.15;;